sensor_id;sensor_type;location;lat;lon;timestamp;P1;durP1;ratioP1;P2;durP2;ratioP2
21315;SDS011;10817;55.820;13.030;2023-12-22T00:01:18;3.13;;;1.70;;
21315;SDS011;10817;55.820;13.030;2023-12-22T00:03:45;16.27;;;1.92;;
21315;SDS011;10817;55.820;13.030;2023-12-22T00:06:14;4.93;;;1.88;;
21315;SDS011;10817;55.820;13.030;2023-12-22T00:08:42;20.33;;;2.65;;
21315;SDS011;10817;55.820;13.030;2023-12-22T00:11:09;11.65;;;2.25;;
21315;SDS011;10817;55.820;13.030;2023-12-22T00:13:36;24.25;;;3.47;;
21315;SDS011;10817;55.820;13.030;2023-12-22T00:16:03;18.85;;;3.63;;
21315;SDS011;10817;55.820;13.030;2023-12-22T00:18:30;22.55;;;3.78;;
21315;SDS011;10817;55.820;13.030;2023-12-22T00:20:58;20.63;;;3.92;;
21315;SDS011;10817;55.820;13.030;2023-12-22T00:23:26;25.42;;;3.42;;
21315;SDS011;10817;55.820;13.030;2023-12-22T00:25:53;23.00;;;3.90;;
21315;SDS011;10817;55.820;13.030;2023-12-22T00:28:20;31.10;;;5.22;;
21315;SDS011;10817;55.820;13.030;2023-12-22T00:30:47;28.00;;;4.82;;
21315;SDS011;10817;55.820;13.030;2023-12-22T00:33:14;36.28;;;3.65;;
21315;SDS011;10817;55.820;13.030;2023-12-22T00:35:42;28.92;;;3.97;;
21315;SDS011;10817;55.820;13.030;2023-12-22T00:38:09;24.60;;;3.95;;
21315;SDS011;10817;55.820;13.030;2023-12-22T00:40:37;36.95;;;5.13;;
21315;SDS011;10817;55.820;13.030;2023-12-22T00:43:05;28.73;;;3.53;;
21315;SDS011;10817;55.820;13.030;2023-12-22T00:45:32;28.63;;;4.50;;
21315;SDS011;10817;55.820;13.030;2023-12-22T00:47:59;24.48;;;3.85;;
21315;SDS011;10817;55.820;13.030;2023-12-22T00:50:26;24.70;;;3.70;;
21315;SDS011;10817;55.820;13.030;2023-12-22T00:52:53;14.50;;;2.90;;
21315;SDS011;10817;55.820;13.030;2023-12-22T00:55:20;15.43;;;2.58;;
21315;SDS011;10817;55.820;13.030;2023-12-22T00:57:49;18.42;;;3.03;;
21315;SDS011;10817;55.820;13.030;2023-12-22T01:00:16;22.15;;;4.20;;
21315;SDS011;10817;55.820;13.030;2023-12-22T01:02:43;18.95;;;3.50;;
21315;SDS011;10817;55.820;13.030;2023-12-22T01:05:10;19.40;;;3.58;;
21315;SDS011;10817;55.820;13.030;2023-12-22T01:07:40;23.98;;;4.43;;
21315;SDS011;10817;55.820;13.030;2023-12-22T01:10:26;18.45;;;3.22;;
21315;SDS011;10817;55.820;13.030;2023-12-22T01:13:11;9.10;;;2.42;;
21315;SDS011;10817;55.820;13.030;2023-12-22T01:15:53;18.85;;;3.10;;
21315;SDS011;10817;55.820;13.030;2023-12-22T01:18:20;15.38;;;3.15;;
21315;SDS011;10817;55.820;13.030;2023-12-22T01:20:47;15.73;;;3.22;;
21315;SDS011;10817;55.820;13.030;2023-12-22T01:23:14;27.13;;;3.28;;
21315;SDS011;10817;55.820;13.030;2023-12-22T01:25:42;19.90;;;3.53;;
21315;SDS011;10817;55.820;13.030;2023-12-22T01:28:10;14.40;;;3.92;;
21315;SDS011;10817;55.820;13.030;2023-12-22T01:30:37;20.83;;;2.95;;
21315;SDS011;10817;55.820;13.030;2023-12-22T01:33:05;12.02;;;2.15;;
21315;SDS011;10817;55.820;13.030;2023-12-22T01:35:32;18.05;;;2.45;;
21315;SDS011;10817;55.820;13.030;2023-12-22T01:37:59;10.93;;;2.80;;
21315;SDS011;10817;55.820;13.030;2023-12-22T01:40:26;21.00;;;4.05;;
21315;SDS011;10817;55.820;13.030;2023-12-22T01:42:53;18.75;;;3.67;;
21315;SDS011;10817;55.820;13.030;2023-12-22T01:45:22;21.08;;;4.18;;
21315;SDS011;10817;55.820;13.030;2023-12-22T01:47:49;30.90;;;5.15;;
21315;SDS011;10817;55.820;13.030;2023-12-22T01:50:17;24.05;;;3.70;;
21315;SDS011;10817;55.820;13.030;2023-12-22T01:52:44;21.15;;;4.10;;
21315;SDS011;10817;55.820;13.030;2023-12-22T01:55:11;29.23;;;4.20;;
21315;SDS011;10817;55.820;13.030;2023-12-22T01:57:39;12.90;;;2.95;;
21315;SDS011;10817;55.820;13.030;2023-12-22T02:00:06;18.63;;;4.32;;
21315;SDS011;10817;55.820;13.030;2023-12-22T02:02:39;17.30;;;3.00;;
21315;SDS011;10817;55.820;13.030;2023-12-22T02:05:08;26.05;;;3.85;;
21315;SDS011;10817;55.820;13.030;2023-12-22T02:07:37;13.52;;;3.25;;
21315;SDS011;10817;55.820;13.030;2023-12-22T02:10:06;24.23;;;3.72;;
21315;SDS011;10817;55.820;13.030;2023-12-22T02:12:33;22.52;;;4.18;;
21315;SDS011;10817;55.820;13.030;2023-12-22T02:15:01;29.50;;;4.20;;
21315;SDS011;10817;55.820;13.030;2023-12-22T02:17:32;9.27;;;2.55;;
21315;SDS011;10817;55.820;13.030;2023-12-22T02:20:01;22.73;;;5.05;;
21315;SDS011;10817;55.820;13.030;2023-12-22T02:22:30;19.05;;;3.28;;
21315;SDS011;10817;55.820;13.030;2023-12-22T02:24:57;19.23;;;3.08;;
21315;SDS011;10817;55.820;13.030;2023-12-22T02:27:27;18.73;;;3.13;;
21315;SDS011;10817;55.820;13.030;2023-12-22T02:29:57;17.17;;;3.03;;
21315;SDS011;10817;55.820;13.030;2023-12-22T02:32:30;32.00;;;4.50;;
21315;SDS011;10817;55.820;13.030;2023-12-22T02:34:57;30.45;;;4.18;;
21315;SDS011;10817;55.820;13.030;2023-12-22T02:37:27;22.98;;;3.33;;
21315;SDS011;10817;55.820;13.030;2023-12-22T02:39:56;15.23;;;3.42;;
21315;SDS011;10817;55.820;13.030;2023-12-22T02:42:24;9.77;;;2.70;;
21315;SDS011;10817;55.820;13.030;2023-12-22T02:44:55;23.15;;;3.88;;
21315;SDS011;10817;55.820;13.030;2023-12-22T02:47:23;15.60;;;3.55;;
21315;SDS011;10817;55.820;13.030;2023-12-22T02:49:50;26.98;;;4.40;;
21315;SDS011;10817;55.820;13.030;2023-12-22T02:52:17;18.58;;;2.67;;
21315;SDS011;10817;55.820;13.030;2023-12-22T02:54:44;13.23;;;3.17;;
21315;SDS011;10817;55.820;13.030;2023-12-22T02:57:13;16.60;;;3.50;;
21315;SDS011;10817;55.820;13.030;2023-12-22T02:59:40;17.92;;;3.67;;
21315;SDS011;10817;55.820;13.030;2023-12-22T03:02:08;18.83;;;4.50;;
21315;SDS011;10817;55.820;13.030;2023-12-22T03:04:35;18.20;;;3.20;;
21315;SDS011;10817;55.820;13.030;2023-12-22T03:07:02;15.65;;;3.58;;
21315;SDS011;10817;55.820;13.030;2023-12-22T03:09:29;24.98;;;3.45;;
21315;SDS011;10817;55.820;13.030;2023-12-22T03:11:57;23.30;;;3.55;;
21315;SDS011;10817;55.820;13.030;2023-12-22T03:14:29;11.10;;;2.55;;
21315;SDS011;10817;55.820;13.030;2023-12-22T03:16:56;15.63;;;3.38;;
21315;SDS011;10817;55.820;13.030;2023-12-22T03:19:23;13.75;;;3.47;;
21315;SDS011;10817;55.820;13.030;2023-12-22T03:21:51;15.13;;;3.10;;
21315;SDS011;10817;55.820;13.030;2023-12-22T03:24:18;26.80;;;3.95;;
21315;SDS011;10817;55.820;13.030;2023-12-22T03:26:47;10.85;;;2.60;;
21315;SDS011;10817;55.820;13.030;2023-12-22T03:29:14;12.50;;;2.65;;
21315;SDS011;10817;55.820;13.030;2023-12-22T03:31:43;16.45;;;2.88;;
21315;SDS011;10817;55.820;13.030;2023-12-22T03:34:10;18.60;;;2.90;;
21315;SDS011;10817;55.820;13.030;2023-12-22T03:36:37;13.07;;;2.38;;
21315;SDS011;10817;55.820;13.030;2023-12-22T03:39:05;15.60;;;2.50;;
21315;SDS011;10817;55.820;13.030;2023-12-22T03:41:32;17.02;;;2.58;;
21315;SDS011;10817;55.820;13.030;2023-12-22T03:43:59;13.73;;;3.42;;
21315;SDS011;10817;55.820;13.030;2023-12-22T03:46:26;16.42;;;2.65;;
21315;SDS011;10817;55.820;13.030;2023-12-22T03:48:55;11.23;;;3.15;;
21315;SDS011;10817;55.820;13.030;2023-12-22T03:51:22;10.38;;;2.33;;
21315;SDS011;10817;55.820;13.030;2023-12-22T03:53:49;13.48;;;2.65;;
21315;SDS011;10817;55.820;13.030;2023-12-22T03:56:16;21.75;;;3.08;;
21315;SDS011;10817;55.820;13.030;2023-12-22T03:58:44;12.77;;;2.20;;
21315;SDS011;10817;55.820;13.030;2023-12-22T04:01:13;19.10;;;2.65;;
21315;SDS011;10817;55.820;13.030;2023-12-22T04:03:40;10.30;;;2.13;;
21315;SDS011;10817;55.820;13.030;2023-12-22T04:06:09;20.63;;;2.42;;
21315;SDS011;10817;55.820;13.030;2023-12-22T04:08:36;13.80;;;2.85;;
21315;SDS011;10817;55.820;13.030;2023-12-22T04:11:03;17.67;;;2.90;;
21315;SDS011;10817;55.820;13.030;2023-12-22T04:13:31;11.82;;;2.55;;
21315;SDS011;10817;55.820;13.030;2023-12-22T04:15:58;16.17;;;2.78;;
21315;SDS011;10817;55.820;13.030;2023-12-22T04:18:25;15.05;;;2.95;;
21315;SDS011;10817;55.820;13.030;2023-12-22T04:20:52;15.05;;;2.40;;
21315;SDS011;10817;55.820;13.030;2023-12-22T04:23:21;11.38;;;2.25;;
21315;SDS011;10817;55.820;13.030;2023-12-22T04:25:48;13.07;;;2.38;;
21315;SDS011;10817;55.820;13.030;2023-12-22T04:28:16;18.55;;;3.50;;
21315;SDS011;10817;55.820;13.030;2023-12-22T04:30:43;20.50;;;3.58;;
21315;SDS011;10817;55.820;13.030;2023-12-22T04:33:10;13.43;;;2.70;;
21315;SDS011;10817;55.820;13.030;2023-12-22T04:35:37;20.60;;;3.33;;
21315;SDS011;10817;55.820;13.030;2023-12-22T04:38:05;20.25;;;2.55;;
21315;SDS011;10817;55.820;13.030;2023-12-22T04:40:34;11.18;;;2.22;;
21315;SDS011;10817;55.820;13.030;2023-12-22T04:43:01;17.83;;;2.55;;
21315;SDS011;10817;55.820;13.030;2023-12-22T04:45:28;10.35;;;2.08;;
21315;SDS011;10817;55.820;13.030;2023-12-22T04:47:55;12.68;;;2.53;;
21315;SDS011;10817;55.820;13.030;2023-12-22T04:50:22;12.10;;;2.50;;
21315;SDS011;10817;55.820;13.030;2023-12-22T04:52:50;11.63;;;2.78;;
21315;SDS011;10817;55.820;13.030;2023-12-22T04:55:17;10.60;;;2.03;;
21315;SDS011;10817;55.820;13.030;2023-12-22T04:57:45;15.65;;;2.60;;
21315;SDS011;10817;55.820;13.030;2023-12-22T05:00:13;17.13;;;2.97;;
21315;SDS011;10817;55.820;13.030;2023-12-22T05:02:40;12.45;;;2.40;;
21315;SDS011;10817;55.820;13.030;2023-12-22T05:05:07;19.15;;;2.72;;
21315;SDS011;10817;55.820;13.030;2023-12-22T05:07:35;14.20;;;3.25;;
21315;SDS011;10817;55.820;13.030;2023-12-22T05:10:02;13.20;;;2.95;;
21315;SDS011;10817;55.820;13.030;2023-12-22T05:12:29;17.35;;;3.15;;
21315;SDS011;10817;55.820;13.030;2023-12-22T05:14:58;22.90;;;3.17;;
21315;SDS011;10817;55.820;13.030;2023-12-22T05:17:24;19.48;;;3.58;;
21315;SDS011;10817;55.820;13.030;2023-12-22T05:19:51;18.98;;;3.67;;
21315;SDS011;10817;55.820;13.030;2023-12-22T05:22:18;25.65;;;3.92;;
21315;SDS011;10817;55.820;13.030;2023-12-22T05:24:45;14.57;;;2.58;;
21315;SDS011;10817;55.820;13.030;2023-12-22T05:27:13;18.60;;;2.65;;
21315;SDS011;10817;55.820;13.030;2023-12-22T05:29:40;13.68;;;2.63;;
21315;SDS011;10817;55.820;13.030;2023-12-22T05:32:08;9.18;;;2.25;;
21315;SDS011;10817;55.820;13.030;2023-12-22T05:34:35;10.43;;;2.35;;
21315;SDS011;10817;55.820;13.030;2023-12-22T05:37:03;17.70;;;2.88;;
21315;SDS011;10817;55.820;13.030;2023-12-22T05:39:30;18.25;;;3.42;;
21315;SDS011;10817;55.820;13.030;2023-12-22T05:41:57;9.35;;;2.10;;
21315;SDS011;10817;55.820;13.030;2023-12-22T05:44:24;16.55;;;2.25;;
21315;SDS011;10817;55.820;13.030;2023-12-22T05:46:54;5.07;;;1.83;;
21315;SDS011;10817;55.820;13.030;2023-12-22T05:49:22;14.27;;;2.22;;
21315;SDS011;10817;55.820;13.030;2023-12-22T05:51:50;12.48;;;1.95;;
21315;SDS011;10817;55.820;13.030;2023-12-22T05:54:17;7.75;;;1.98;;
21315;SDS011;10817;55.820;13.030;2023-12-22T05:56:44;15.52;;;2.50;;
21315;SDS011;10817;55.820;13.030;2023-12-22T05:59:11;10.02;;;2.20;;
21315;SDS011;10817;55.820;13.030;2023-12-22T06:01:38;14.35;;;2.05;;
21315;SDS011;10817;55.820;13.030;2023-12-22T06:04:06;10.63;;;2.53;;
21315;SDS011;10817;55.820;13.030;2023-12-22T06:06:35;8.60;;;2.50;;
21315;SDS011;10817;55.820;13.030;2023-12-22T06:09:03;12.23;;;2.35;;
21315;SDS011;10817;55.820;13.030;2023-12-22T06:11:30;10.90;;;2.30;;
21315;SDS011;10817;55.820;13.030;2023-12-22T06:13:57;14.10;;;2.80;;
21315;SDS011;10817;55.820;13.030;2023-12-22T06:16:25;15.60;;;2.85;;
21315;SDS011;10817;55.820;13.030;2023-12-22T06:18:52;10.80;;;2.42;;
21315;SDS011;10817;55.820;13.030;2023-12-22T06:21:19;7.97;;;2.60;;
21315;SDS011;10817;55.820;13.030;2023-12-22T06:23:47;11.00;;;1.98;;
21315;SDS011;10817;55.820;13.030;2023-12-22T06:26:14;15.52;;;2.95;;
21315;SDS011;10817;55.820;13.030;2023-12-22T06:28:42;8.48;;;2.60;;
21315;SDS011;10817;55.820;13.030;2023-12-22T06:31:16;14.45;;;2.83;;
21315;SDS011;10817;55.820;13.030;2023-12-22T06:33:44;14.95;;;2.70;;
21315;SDS011;10817;55.820;13.030;2023-12-22T06:36:17;16.30;;;3.05;;
21315;SDS011;10817;55.820;13.030;2023-12-22T06:38:44;4.25;;;2.00;;
21315;SDS011;10817;55.820;13.030;2023-12-22T06:41:18;8.55;;;2.85;;
21315;SDS011;10817;55.820;13.030;2023-12-22T06:43:46;8.85;;;2.30;;
21315;SDS011;10817;55.820;13.030;2023-12-22T06:46:16;12.48;;;2.85;;
21315;SDS011;10817;55.820;13.030;2023-12-22T06:48:43;10.18;;;2.60;;
21315;SDS011;10817;55.820;13.030;2023-12-22T06:51:16;11.15;;;3.22;;
21315;SDS011;10817;55.820;13.030;2023-12-22T06:53:44;13.90;;;2.80;;
21315;SDS011;10817;55.820;13.030;2023-12-22T06:56:15;13.00;;;2.60;;
21315;SDS011;10817;55.820;13.030;2023-12-22T06:58:44;7.03;;;2.30;;
21315;SDS011;10817;55.820;13.030;2023-12-22T07:01:12;10.35;;;3.13;;
21315;SDS011;10817;55.820;13.030;2023-12-22T07:03:39;10.02;;;2.78;;
21315;SDS011;10817;55.820;13.030;2023-12-22T07:06:06;11.80;;;2.88;;
21315;SDS011;10817;55.820;13.030;2023-12-22T07:08:33;11.30;;;3.20;;
21315;SDS011;10817;55.820;13.030;2023-12-22T07:11:00;14.05;;;3.13;;
21315;SDS011;10817;55.820;13.030;2023-12-22T07:13:28;15.77;;;3.05;;
21315;SDS011;10817;55.820;13.030;2023-12-22T07:15:56;17.33;;;3.38;;
21315;SDS011;10817;55.820;13.030;2023-12-22T07:18:23;22.60;;;4.43;;
21315;SDS011;10817;55.820;13.030;2023-12-22T07:20:55;22.10;;;4.55;;
21315;SDS011;10817;55.820;13.030;2023-12-22T07:23:22;14.88;;;3.72;;
21315;SDS011;10817;55.820;13.030;2023-12-22T07:25:49;18.65;;;4.22;;
21315;SDS011;10817;55.820;13.030;2023-12-22T07:28:16;13.10;;;3.45;;
21315;SDS011;10817;55.820;13.030;2023-12-22T07:30:43;14.30;;;3.20;;
21315;SDS011;10817;55.820;13.030;2023-12-22T07:33:12;17.63;;;3.90;;
21315;SDS011;10817;55.820;13.030;2023-12-22T07:35:39;12.75;;;3.85;;
21315;SDS011;10817;55.820;13.030;2023-12-22T07:38:06;17.30;;;3.55;;
21315;SDS011;10817;55.820;13.030;2023-12-22T07:40:34;18.27;;;4.10;;
21315;SDS011;10817;55.820;13.030;2023-12-22T07:43:01;20.30;;;2.88;;
21315;SDS011;10817;55.820;13.030;2023-12-22T07:45:29;17.20;;;3.97;;
21315;SDS011;10817;55.820;13.030;2023-12-22T07:47:56;24.00;;;4.18;;
21315;SDS011;10817;55.820;13.030;2023-12-22T07:50:24;18.83;;;3.72;;
21315;SDS011;10817;55.820;13.030;2023-12-22T07:52:52;18.38;;;4.47;;
21315;SDS011;10817;55.820;13.030;2023-12-22T07:55:19;10.50;;;3.13;;
21315;SDS011;10817;55.820;13.030;2023-12-22T07:57:47;21.45;;;4.03;;
21315;SDS011;10817;55.820;13.030;2023-12-22T08:00:14;15.55;;;3.95;;
21315;SDS011;10817;55.820;13.030;2023-12-22T08:02:42;14.32;;;3.40;;
21315;SDS011;10817;55.820;13.030;2023-12-22T08:05:09;14.18;;;3.85;;
21315;SDS011;10817;55.820;13.030;2023-12-22T08:07:38;15.57;;;3.95;;
21315;SDS011;10817;55.820;13.030;2023-12-22T08:10:05;18.70;;;3.90;;
21315;SDS011;10817;55.820;13.030;2023-12-22T08:12:32;18.55;;;4.75;;
21315;SDS011;10817;55.820;13.030;2023-12-22T08:15:00;13.60;;;3.88;;
21315;SDS011;10817;55.820;13.030;2023-12-22T08:17:28;19.95;;;3.92;;
21315;SDS011;10817;55.820;13.030;2023-12-22T08:19:55;21.40;;;3.70;;
21315;SDS011;10817;55.820;13.030;2023-12-22T08:22:23;14.52;;;3.60;;
21315;SDS011;10817;55.820;13.030;2023-12-22T08:24:50;19.48;;;4.18;;
21315;SDS011;10817;55.820;13.030;2023-12-22T08:27:17;16.02;;;3.75;;
21315;SDS011;10817;55.820;13.030;2023-12-22T08:29:44;17.85;;;4.40;;
21315;SDS011;10817;55.820;13.030;2023-12-22T08:32:11;21.65;;;4.30;;
21315;SDS011;10817;55.820;13.030;2023-12-22T08:34:39;18.40;;;4.05;;
21315;SDS011;10817;55.820;13.030;2023-12-22T08:37:06;20.95;;;4.28;;
21315;SDS011;10817;55.820;13.030;2023-12-22T08:39:33;14.35;;;3.72;;
21315;SDS011;10817;55.820;13.030;2023-12-22T08:42:02;20.83;;;4.93;;
21315;SDS011;10817;55.820;13.030;2023-12-22T08:44:29;23.98;;;4.68;;
21315;SDS011;10817;55.820;13.030;2023-12-22T08:46:56;20.40;;;4.43;;
21315;SDS011;10817;55.820;13.030;2023-12-22T08:49:23;28.15;;;4.05;;
21315;SDS011;10817;55.820;13.030;2023-12-22T08:51:51;12.98;;;4.35;;
21315;SDS011;10817;55.820;13.030;2023-12-22T08:54:18;18.92;;;4.35;;
21315;SDS011;10817;55.820;13.030;2023-12-22T08:56:45;22.92;;;4.00;;
21315;SDS011;10817;55.820;13.030;2023-12-22T08:59:13;20.73;;;4.22;;
21315;SDS011;10817;55.820;13.030;2023-12-22T09:01:41;16.77;;;3.90;;
21315;SDS011;10817;55.820;13.030;2023-12-22T09:04:09;19.40;;;4.28;;
21315;SDS011;10817;55.820;13.030;2023-12-22T09:06:36;11.68;;;4.15;;
21315;SDS011;10817;55.820;13.030;2023-12-22T09:09:04;13.65;;;4.30;;
21315;SDS011;10817;55.820;13.030;2023-12-22T09:11:32;25.73;;;4.93;;
21315;SDS011;10817;55.820;13.030;2023-12-22T09:13:59;14.38;;;3.38;;
21315;SDS011;10817;55.820;13.030;2023-12-22T09:16:27;20.30;;;3.90;;
21315;SDS011;10817;55.820;13.030;2023-12-22T09:18:54;16.73;;;3.95;;
21315;SDS011;10817;55.820;13.030;2023-12-22T09:21:22;15.75;;;3.15;;
21315;SDS011;10817;55.820;13.030;2023-12-22T09:23:49;15.55;;;3.42;;
21315;SDS011;10817;55.820;13.030;2023-12-22T09:26:16;18.83;;;2.63;;
21315;SDS011;10817;55.820;13.030;2023-12-22T09:28:44;11.27;;;2.92;;
21315;SDS011;10817;55.820;13.030;2023-12-22T09:31:11;16.98;;;3.63;;
21315;SDS011;10817;55.820;13.030;2023-12-22T09:33:40;20.52;;;3.45;;
21315;SDS011;10817;55.820;13.030;2023-12-22T09:36:07;14.63;;;3.05;;
21315;SDS011;10817;55.820;13.030;2023-12-22T09:38:35;10.02;;;3.38;;
21315;SDS011;10817;55.820;13.030;2023-12-22T09:41:02;15.30;;;2.80;;
21315;SDS011;10817;55.820;13.030;2023-12-22T09:43:30;29.10;;;3.95;;
21315;SDS011;10817;55.820;13.030;2023-12-22T09:45:59;12.73;;;2.72;;
21315;SDS011;10817;55.820;13.030;2023-12-22T09:48:26;17.67;;;3.40;;
21315;SDS011;10817;55.820;13.030;2023-12-22T09:50:55;15.70;;;2.85;;
21315;SDS011;10817;55.820;13.030;2023-12-22T09:53:22;12.70;;;3.08;;
21315;SDS011;10817;55.820;13.030;2023-12-22T09:55:51;15.00;;;2.80;;
21315;SDS011;10817;55.820;13.030;2023-12-22T09:58:20;12.07;;;3.53;;
21315;SDS011;10817;55.820;13.030;2023-12-22T10:00:48;15.52;;;3.22;;
21315;SDS011;10817;55.820;13.030;2023-12-22T10:03:16;10.80;;;2.58;;
21315;SDS011;10817;55.820;13.030;2023-12-22T10:05:46;10.45;;;2.78;;
21315;SDS011;10817;55.820;13.030;2023-12-22T10:08:15;10.68;;;3.20;;
21315;SDS011;10817;55.820;13.030;2023-12-22T10:10:42;11.32;;;3.80;;
21315;SDS011;10817;55.820;13.030;2023-12-22T10:13:09;14.43;;;3.15;;
21315;SDS011;10817;55.820;13.030;2023-12-22T10:15:38;16.13;;;2.35;;
21315;SDS011;10817;55.820;13.030;2023-12-22T10:18:06;5.82;;;2.20;;
21315;SDS011;10817;55.820;13.030;2023-12-22T10:20:34;9.13;;;2.22;;
21315;SDS011;10817;55.820;13.030;2023-12-22T10:23:02;12.45;;;2.28;;
21315;SDS011;10817;55.820;13.030;2023-12-22T10:25:31;9.63;;;2.33;;
21315;SDS011;10817;55.820;13.030;2023-12-22T10:27:58;4.85;;;1.83;;
21315;SDS011;10817;55.820;13.030;2023-12-22T10:30:26;12.90;;;2.45;;
21315;SDS011;10817;55.820;13.030;2023-12-22T10:32:54;8.73;;;2.10;;
21315;SDS011;10817;55.820;13.030;2023-12-22T10:35:21;7.10;;;2.28;;
21315;SDS011;10817;55.820;13.030;2023-12-22T10:37:52;6.88;;;2.00;;
21315;SDS011;10817;55.820;13.030;2023-12-22T10:40:22;8.38;;;2.20;;
21315;SDS011;10817;55.820;13.030;2023-12-22T10:42:51;12.88;;;2.40;;
21315;SDS011;10817;55.820;13.030;2023-12-22T10:45:19;8.60;;;2.38;;
21315;SDS011;10817;55.820;13.030;2023-12-22T10:47:48;18.35;;;2.97;;
21315;SDS011;10817;55.820;13.030;2023-12-22T10:50:15;6.53;;;2.42;;
21315;SDS011;10817;55.820;13.030;2023-12-22T10:52:48;5.68;;;2.25;;
21315;SDS011;10817;55.820;13.030;2023-12-22T10:55:16;8.32;;;2.10;;
21315;SDS011;10817;55.820;13.030;2023-12-22T10:57:44;9.73;;;2.35;;
21315;SDS011;10817;55.820;13.030;2023-12-22T11:00:14;7.28;;;2.60;;
21315;SDS011;10817;55.820;13.030;2023-12-22T11:02:42;12.70;;;2.65;;
21315;SDS011;10817;55.820;13.030;2023-12-22T11:05:10;12.50;;;2.40;;
21315;SDS011;10817;55.820;13.030;2023-12-22T11:07:38;5.35;;;2.17;;
21315;SDS011;10817;55.820;13.030;2023-12-22T11:10:08;8.27;;;2.45;;
21315;SDS011;10817;55.820;13.030;2023-12-22T11:12:37;6.72;;;2.30;;
21315;SDS011;10817;55.820;13.030;2023-12-22T11:15:05;6.15;;;1.85;;
21315;SDS011;10817;55.820;13.030;2023-12-22T11:17:34;9.63;;;2.65;;
21315;SDS011;10817;55.820;13.030;2023-12-22T11:20:05;11.15;;;2.10;;
21315;SDS011;10817;55.820;13.030;2023-12-22T11:22:33;11.75;;;2.67;;
21315;SDS011;10817;55.820;13.030;2023-12-22T11:25:00;9.00;;;2.17;;
21315;SDS011;10817;55.820;13.030;2023-12-22T11:27:29;5.68;;;2.25;;
21315;SDS011;10817;55.820;13.030;2023-12-22T11:30:00;11.80;;;2.47;;
21315;SDS011;10817;55.820;13.030;2023-12-22T11:32:28;8.23;;;2.42;;
21315;SDS011;10817;55.820;13.030;2023-12-22T11:34:57;8.68;;;2.80;;
21315;SDS011;10817;55.820;13.030;2023-12-22T11:37:33;10.45;;;2.50;;
21315;SDS011;10817;55.820;13.030;2023-12-22T11:40:04;8.90;;;2.67;;
21315;SDS011;10817;55.820;13.030;2023-12-22T11:42:33;9.77;;;2.33;;
21315;SDS011;10817;55.820;13.030;2023-12-22T11:45:12;7.45;;;2.22;;
21315;SDS011;10817;55.820;13.030;2023-12-22T11:47:41;6.13;;;2.30;;
21315;SDS011;10817;55.820;13.030;2023-12-22T11:50:10;4.65;;;2.28;;
21315;SDS011;10817;55.820;13.030;2023-12-22T11:52:38;6.45;;;2.30;;
21315;SDS011;10817;55.820;13.030;2023-12-22T11:55:05;9.30;;;3.47;;
21315;SDS011;10817;55.820;13.030;2023-12-22T11:57:33;8.82;;;2.60;;
21315;SDS011;10817;55.820;13.030;2023-12-22T12:00:05;7.07;;;2.28;;
21315;SDS011;10817;55.820;13.030;2023-12-22T12:02:39;7.60;;;2.40;;
21315;SDS011;10817;55.820;13.030;2023-12-22T12:05:07;8.60;;;2.60;;
21315;SDS011;10817;55.820;13.030;2023-12-22T12:07:45;8.55;;;2.30;;
21315;SDS011;10817;55.820;13.030;2023-12-22T12:13:03;11.45;;;2.35;;
21315;SDS011;10817;55.820;13.030;2023-12-22T12:15:32;8.38;;;2.20;;
21315;SDS011;10817;55.820;13.030;2023-12-22T12:18:00;8.07;;;2.53;;
21315;SDS011;10817;55.820;13.030;2023-12-22T12:20:27;7.57;;;2.47;;
21315;SDS011;10817;55.820;13.030;2023-12-22T12:22:56;8.07;;;2.40;;
21315;SDS011;10817;55.820;13.030;2023-12-22T12:25:23;7.82;;;2.50;;
21315;SDS011;10817;55.820;13.030;2023-12-22T12:27:53;5.93;;;2.30;;
21315;SDS011;10817;55.820;13.030;2023-12-22T12:30:27;8.32;;;1.90;;
21315;SDS011;10817;55.820;13.030;2023-12-22T12:32:55;8.98;;;2.17;;
21315;SDS011;10817;55.820;13.030;2023-12-22T12:35:27;15.88;;;2.85;;
21315;SDS011;10817;55.820;13.030;2023-12-22T12:37:56;7.07;;;2.10;;
21315;SDS011;10817;55.820;13.030;2023-12-22T12:40:24;11.82;;;2.10;;
21315;SDS011;10817;55.820;13.030;2023-12-22T12:42:51;4.63;;;2.15;;
21315;SDS011;10817;55.820;13.030;2023-12-22T12:45:21;6.35;;;2.03;;
21315;SDS011;10817;55.820;13.030;2023-12-22T12:47:54;9.27;;;2.40;;
21315;SDS011;10817;55.820;13.030;2023-12-22T12:50:22;3.55;;;1.77;;
21315;SDS011;10817;55.820;13.030;2023-12-22T12:52:49;9.45;;;2.22;;
21315;SDS011;10817;55.820;13.030;2023-12-22T12:55:18;9.40;;;2.05;;
21315;SDS011;10817;55.820;13.030;2023-12-22T12:57:47;12.85;;;2.28;;
21315;SDS011;10817;55.820;13.030;2023-12-22T13:00:15;10.30;;;2.42;;
21315;SDS011;10817;55.820;13.030;2023-12-22T13:02:46;4.95;;;1.75;;
21315;SDS011;10817;55.820;13.030;2023-12-22T13:05:19;5.00;;;1.85;;
21315;SDS011;10817;55.820;13.030;2023-12-22T13:07:47;7.38;;;2.00;;
21315;SDS011;10817;55.820;13.030;2023-12-22T13:10:22;5.28;;;1.95;;
21315;SDS011;10817;55.820;13.030;2023-12-22T13:12:49;14.60;;;2.20;;
21315;SDS011;10817;55.820;13.030;2023-12-22T13:15:22;7.93;;;2.15;;
21315;SDS011;10817;55.820;13.030;2023-12-22T13:17:49;7.07;;;1.80;;
21315;SDS011;10817;55.820;13.030;2023-12-22T13:20:30;8.32;;;2.17;;
21315;SDS011;10817;55.820;13.030;2023-12-22T13:23:24;7.78;;;1.52;;
21315;SDS011;10817;55.820;13.030;2023-12-22T13:29:13;5.53;;;1.75;;
21315;SDS011;10817;55.820;13.030;2023-12-22T13:34:52;9.95;;;2.95;;
21315;SDS011;10817;55.820;13.030;2023-12-22T13:37:37;8.02;;;2.03;;
21315;SDS011;10817;55.820;13.030;2023-12-22T13:40:16;6.65;;;2.10;;
21315;SDS011;10817;55.820;13.030;2023-12-22T13:42:58;11.02;;;2.42;;
21315;SDS011;10817;55.820;13.030;2023-12-22T13:48:59;8.38;;;2.03;;
21315;SDS011;10817;55.820;13.030;2023-12-22T13:51:38;10.77;;;2.13;;
21315;SDS011;10817;55.820;13.030;2023-12-22T13:54:17;11.05;;;2.22;;
21315;SDS011;10817;55.820;13.030;2023-12-22T13:57:28;5.75;;;2.10;;
21315;SDS011;10817;55.820;13.030;2023-12-22T14:00:11;7.38;;;2.28;;
21315;SDS011;10817;55.820;13.030;2023-12-22T14:03:00;12.50;;;2.38;;
21315;SDS011;10817;55.820;13.030;2023-12-22T14:05:29;10.15;;;2.17;;
21315;SDS011;10817;55.820;13.030;2023-12-22T14:07:56;17.42;;;1.90;;
21315;SDS011;10817;55.820;13.030;2023-12-22T14:10:26;8.27;;;2.72;;
21315;SDS011;10817;55.820;13.030;2023-12-22T14:12:53;6.15;;;1.75;;
21315;SDS011;10817;55.820;13.030;2023-12-22T14:15:23;10.82;;;1.95;;
21315;SDS011;10817;55.820;13.030;2023-12-22T14:17:54;8.20;;;1.88;;
21315;SDS011;10817;55.820;13.030;2023-12-22T14:20:21;5.57;;;1.98;;
21315;SDS011;10817;55.820;13.030;2023-12-22T14:22:49;7.25;;;1.90;;
21315;SDS011;10817;55.820;13.030;2023-12-22T14:25:17;10.52;;;2.20;;
21315;SDS011;10817;55.820;13.030;2023-12-22T14:27:44;9.40;;;1.90;;
21315;SDS011;10817;55.820;13.030;2023-12-22T14:30:12;6.55;;;2.20;;
21315;SDS011;10817;55.820;13.030;2023-12-22T14:32:39;7.03;;;2.75;;
21315;SDS011;10817;55.820;13.030;2023-12-22T14:35:07;8.75;;;2.80;;
21315;SDS011;10817;55.820;13.030;2023-12-22T14:37:35;9.57;;;2.17;;
21315;SDS011;10817;55.820;13.030;2023-12-22T14:40:04;13.40;;;2.47;;
21315;SDS011;10817;55.820;13.030;2023-12-22T14:42:31;13.65;;;2.40;;
21315;SDS011;10817;55.820;13.030;2023-12-22T14:44:59;10.23;;;1.98;;
21315;SDS011;10817;55.820;13.030;2023-12-22T14:47:27;10.25;;;2.80;;